createdAt,value
2023-04-24T00:02:23.409Z,9.38
2023-04-24T00:04:53.425Z,8.27
2023-04-24T00:07:25.729Z,6.40
2023-04-24T00:09:55.531Z,6.97
2023-04-24T00:12:25.292Z,27.85
2023-04-24T00:14:55.077Z,35.30
2023-04-24T00:17:24.813Z,7.80
2023-04-24T00:19:59.554Z,11.20
2023-04-24T00:22:32.282Z,7.05
2023-04-24T00:25:01.932Z,7.15
2023-04-24T00:27:31.691Z,6.70
2023-04-24T00:30:01.426Z,9.10
2023-04-24T00:32:31.214Z,6.82
2023-04-24T00:35:00.951Z,7.05
2023-04-24T00:37:33.274Z,7.80
2023-04-24T00:40:03.858Z,9.82
2023-04-24T00:42:33.626Z,7.78
2023-04-24T00:45:04.689Z,6.35
2023-04-24T00:47:34.462Z,8.00
2023-04-24T00:50:05.125Z,9.73
2023-04-24T00:52:38.316Z,7.30
2023-04-24T00:55:08.659Z,8.40
2023-04-24T00:57:38.482Z,8.32
2023-04-24T01:00:13.139Z,6.85
2023-04-24T01:02:45.443Z,5.53
2023-04-24T01:05:16.207Z,8.32
2023-04-24T01:07:50.238Z,5.88
2023-04-24T01:10:21.620Z,8.05
2023-04-24T01:12:51.307Z,10.48
2023-04-24T01:15:21.114Z,8.18
2023-04-24T01:17:51.307Z,6.57
2023-04-24T01:20:22.203Z,7.03
2023-04-24T01:22:54.515Z,10.48
2023-04-24T01:25:26.479Z,8.18
2023-04-24T01:27:57.036Z,8.05
2023-04-24T01:30:26.791Z,9.57
2023-04-24T01:32:56.536Z,5.90
2023-04-24T01:35:26.288Z,8.82
2023-04-24T01:37:58.653Z,8.30
2023-04-24T01:40:31.224Z,6.88
2023-04-24T01:43:01.466Z,6.70
2023-04-24T01:45:31.444Z,9.05
2023-04-24T01:48:01.199Z,10.10
2023-04-24T01:50:32.029Z,10.15
2023-04-24T01:53:04.378Z,6.85
2023-04-24T01:55:34.071Z,7.82
2023-04-24T01:58:03.840Z,7.38
2023-04-24T02:00:33.700Z,8.82
2023-04-24T02:03:03.725Z,11.13
2023-04-24T02:05:33.561Z,7.35
2023-04-24T02:08:05.853Z,8.77
2023-04-24T02:10:35.533Z,7.32
2023-04-24T02:13:05.938Z,6.88
2023-04-24T02:15:37.172Z,6.15
2023-04-24T02:18:08.061Z,6.50
2023-04-24T02:20:38.140Z,7.25
2023-04-24T02:23:10.429Z,6.40
2023-04-24T02:25:40.178Z,8.35
2023-04-24T02:28:10.306Z,8.68
2023-04-24T02:30:40.037Z,7.43
2023-04-24T02:33:09.752Z,5.85
2023-04-24T02:35:39.594Z,5.82
2023-04-24T02:38:12.006Z,6.15
2023-04-24T02:40:41.711Z,3.78
2023-04-24T02:43:13.497Z,4.95
2023-04-24T02:45:43.213Z,4.32
2023-04-24T02:48:12.973Z,4.43
2023-04-24T02:50:42.874Z,6.85
2023-04-24T02:53:15.170Z,7.97
2023-04-24T02:55:44.838Z,6.13
2023-04-24T02:58:14.561Z,6.32
2023-04-24T03:00:44.674Z,5.38
2023-04-24T03:03:14.487Z,7.22
2023-04-24T03:05:44.241Z,6.75
2023-04-24T03:08:16.506Z,6.57
2023-04-24T03:10:48.134Z,6.40
2023-04-24T03:13:19.159Z,6.25
2023-04-24T03:15:49.001Z,5.85
2023-04-24T03:18:18.998Z,5.38
2023-04-24T03:20:50.798Z,5.85
2023-04-24T03:23:23.414Z,4.55
2023-04-24T03:25:53.387Z,5.93
2023-04-24T03:28:23.580Z,9.00
2023-04-24T03:31:01.232Z,7.45
2023-04-24T03:33:35.237Z,8.35
2023-04-24T03:36:06.205Z,6.72
2023-04-24T03:38:45.070Z,6.43
2023-04-24T03:41:26.042Z,6.97
2023-04-24T03:44:11.081Z,6.93
2023-04-24T03:46:41.060Z,7.55
2023-04-24T03:49:10.814Z,5.75
2023-04-24T03:51:44.711Z,9.57
2023-04-24T03:54:26.799Z,7.90
2023-04-24T03:56:57.566Z,6.03
2023-04-24T03:59:29.565Z,7.15
2023-04-24T04:02:12.280Z,8.68
2023-04-24T04:04:42.396Z,9.45
2023-04-24T04:07:12.496Z,8.10
2023-04-24T04:09:45.231Z,6.13
2023-04-24T04:12:15.120Z,9.23
2023-04-24T04:14:44.822Z,6.82
2023-04-24T04:17:14.560Z,9.93
2023-04-24T04:19:44.849Z,11.45
2023-04-24T04:22:14.732Z,28.15
2023-04-24T04:24:52.192Z,6.95
2023-04-24T04:27:25.160Z,6.43
2023-04-24T04:30:05.868Z,16.90
2023-04-24T04:32:43.347Z,8.40
2023-04-24T04:35:13.120Z,7.93
2023-04-24T04:37:43.711Z,7.93
2023-04-24T04:40:36.239Z,8.48
2023-04-24T04:43:08.710Z,9.35
2023-04-24T04:45:46.134Z,8.15
2023-04-24T04:51:06.667Z,8.13
2023-04-24T04:53:36.573Z,9.15
2023-04-24T04:56:09.398Z,9.57
2023-04-24T04:58:48.371Z,9.73
2023-04-24T05:01:20.099Z,13.93
2023-04-24T05:03:51.805Z,12.18
2023-04-24T05:06:23.805Z,13.38
2023-04-24T05:08:58.444Z,9.05
2023-04-24T05:11:57.311Z,7.30
2023-04-24T05:14:27.979Z,7.32
2023-04-24T05:16:57.724Z,9.90
2023-04-24T05:19:29.230Z,13.35
2023-04-24T05:21:58.970Z,10.23
2023-04-24T05:24:28.828Z,7.50
2023-04-24T05:27:01.477Z,11.23
2023-04-24T05:29:39.259Z,10.93
2023-04-24T05:32:09.574Z,10.02
2023-04-24T05:34:39.255Z,8.68
2023-04-24T05:37:11.103Z,8.38
2023-04-24T05:39:42.627Z,7.68
2023-04-24T05:42:15.359Z,9.15
2023-04-24T05:44:45.033Z,5.97
2023-04-24T05:47:14.720Z,7.18
2023-04-24T05:49:44.528Z,8.23
2023-04-24T05:52:14.373Z,10.40
2023-04-24T05:54:45.085Z,7.55
2023-04-24T05:57:19.694Z,8.48
2023-04-24T06:00:03.988Z,8.32
2023-04-24T06:02:43.285Z,9.57
2023-04-24T06:05:16.070Z,9.18
2023-04-24T06:07:46.066Z,8.48
2023-04-24T06:10:15.788Z,9.82
2023-04-24T06:12:50.720Z,8.18
2023-04-24T06:15:21.344Z,13.38
2023-04-24T06:17:57.059Z,13.63
2023-04-24T06:20:27.013Z,11.88
2023-04-24T06:22:56.860Z,29.77
2023-04-24T06:25:28.615Z,10.77
2023-04-24T06:28:01.067Z,10.98
2023-04-24T06:30:33.102Z,13.48
2023-04-24T06:33:12.974Z,9.45
2023-04-24T06:35:49.617Z,12.77
2023-04-24T06:38:19.921Z,14.68
2023-04-24T06:40:49.632Z,15.23
2023-04-24T06:43:21.912Z,8.98
2023-04-24T06:45:51.779Z,11.85
2023-04-24T06:48:21.497Z,9.35
2023-04-24T06:50:51.197Z,8.93
2023-04-24T06:53:21.048Z,8.88
2023-04-24T06:55:50.744Z,7.90
2023-04-24T06:58:23.023Z,12.40
2023-04-24T07:00:52.787Z,7.75
2023-04-24T07:03:22.789Z,11.57
2023-04-24T07:05:52.811Z,10.18
2023-04-24T07:08:23.227Z,7.28
2023-04-24T07:10:53.465Z,11.95
2023-04-24T07:13:25.825Z,13.05
2023-04-24T07:15:56.360Z,9.23
2023-04-24T07:18:26.445Z,8.43
2023-04-24T07:20:56.157Z,8.20
2023-04-24T07:23:26.026Z,10.40
2023-04-24T07:25:55.701Z,11.75
2023-04-24T07:28:27.998Z,10.25
2023-04-24T07:30:57.838Z,10.15
2023-04-24T07:33:27.521Z,7.60
2023-04-24T07:35:57.659Z,6.85
2023-04-24T07:38:27.392Z,6.65
2023-04-24T07:40:57.086Z,6.68
2023-04-24T07:43:29.352Z,7.50
2023-04-24T07:45:59.083Z,9.43
2023-04-24T07:48:28.852Z,9.48
2023-04-24T07:50:58.557Z,14.82
2023-04-24T07:53:28.329Z,9.35
2023-04-24T07:55:58.295Z,7.93
2023-04-24T07:58:30.547Z,11.55
2023-04-24T08:01:00.248Z,8.48
2023-04-24T08:03:30.022Z,8.75
2023-04-24T08:05:59.937Z,9.52
2023-04-24T08:08:29.821Z,15.75
2023-04-24T08:10:59.524Z,12.90
2023-04-24T08:13:31.777Z,14.40
2023-04-24T08:16:01.554Z,12.45
2023-04-24T08:18:31.786Z,16.70
2023-04-24T08:21:02.753Z,10.27
2023-04-24T08:23:32.833Z,10.20
2023-04-24T08:26:02.527Z,13.35
2023-04-24T08:28:34.832Z,9.30
2023-04-24T08:31:04.484Z,8.18
2023-04-24T08:33:36.008Z,9.38
2023-04-24T08:36:06.679Z,10.52
2023-04-24T08:38:36.508Z,9.48
2023-04-24T08:41:06.338Z,8.82
2023-04-24T08:43:38.997Z,10.52
2023-04-24T08:46:11.816Z,11.85
2023-04-24T08:48:58.380Z,9.88
2023-04-24T08:51:30.377Z,10.23
2023-04-24T08:54:01.307Z,17.20
2023-04-24T08:56:32.513Z,9.02
2023-04-24T08:59:04.914Z,9.30
2023-04-24T09:01:36.291Z,10.20
2023-04-24T09:04:06.648Z,8.93
2023-04-24T09:06:36.949Z,10.65
2023-04-24T09:09:07.099Z,12.45
2023-04-24T09:11:36.784Z,8.65
2023-04-24T09:14:09.220Z,11.52
2023-04-24T09:16:39.521Z,9.13
2023-04-24T09:19:09.237Z,9.80
2023-04-24T09:21:39.438Z,11.05
2023-04-24T09:24:09.838Z,19.33
2023-04-24T09:26:40.118Z,12.25
2023-04-24T09:29:17.927Z,11.55
2023-04-24T09:31:48.167Z,13.02
2023-04-24T09:34:17.928Z,10.82
2023-04-24T09:36:47.675Z,12.48
2023-04-24T09:39:17.763Z,11.18
2023-04-24T09:41:48.405Z,11.45
2023-04-24T09:44:22.086Z,11.48
2023-04-24T09:46:53.763Z,10.73
2023-04-24T09:49:26.384Z,10.95
2023-04-24T09:51:56.263Z,15.57
2023-04-24T09:54:26.966Z,15.98
2023-04-24T09:56:58.504Z,15.75
2023-04-24T09:59:31.901Z,14.45
2023-04-24T10:02:01.710Z,12.13
2023-04-24T10:04:32.944Z,11.38
2023-04-24T10:07:02.832Z,15.23
2023-04-24T10:09:32.663Z,19.98
2023-04-24T10:12:03.379Z,15.40
2023-04-24T10:14:35.824Z,14.43
2023-04-24T10:17:05.688Z,18.05
2023-04-24T10:19:36.962Z,24.23
2023-04-24T10:22:08.825Z,12.77
2023-04-24T10:24:39.584Z,12.18
2023-04-24T10:27:09.678Z,12.50
2023-04-24T10:29:44.129Z,17.17
2023-04-24T10:32:13.853Z,14.00
2023-04-24T10:34:43.598Z,17.52
2023-04-24T10:37:14.669Z,30.30
2023-04-24T10:39:44.333Z,19.48
2023-04-24T10:42:20.227Z,21.77
2023-04-24T10:44:55.111Z,22.05
2023-04-24T10:47:26.408Z,22.75
2023-04-24T10:49:56.171Z,17.40
2023-04-24T10:52:26.721Z,11.60
2023-04-24T10:54:59.133Z,11.93
2023-04-24T10:57:35.282Z,15.18
2023-04-24T11:00:18.397Z,12.90
2023-04-24T11:02:51.715Z,10.88
2023-04-24T11:05:22.564Z,12.50
2023-04-24T11:08:07.379Z,11.07
2023-04-24T11:10:37.268Z,20.17
2023-04-24T11:13:06.943Z,10.48
2023-04-24T11:15:39.257Z,13.30
2023-04-24T11:18:09.313Z,18.58
2023-04-24T11:20:39.001Z,11.23
2023-04-24T11:23:09.930Z,11.25
2023-04-24T11:25:39.684Z,14.60
2023-04-24T11:28:09.616Z,14.07
2023-04-24T11:30:43.888Z,11.35
2023-04-24T11:33:13.612Z,11.43
2023-04-24T11:35:44.249Z,11.77
2023-04-24T11:38:24.228Z,17.42
2023-04-24T11:40:55.416Z,12.52
2023-04-24T11:43:25.401Z,17.38
2023-04-24T11:45:57.766Z,14.38
2023-04-24T11:48:27.460Z,13.10
2023-04-24T11:50:57.198Z,14.77
2023-04-24T11:53:26.854Z,13.00
2023-04-24T11:55:56.564Z,13.30
2023-04-24T11:58:27.797Z,13.98
2023-04-24T12:01:02.515Z,15.55
2023-04-24T12:03:32.486Z,26.30
2023-04-24T12:06:09.384Z,48.42
2023-04-24T12:08:39.311Z,25.23
2023-04-24T12:11:09.686Z,13.40
2023-04-24T12:13:39.826Z,12.65
2023-04-24T12:16:12.181Z,11.85
2023-04-24T12:18:46.427Z,12.02
2023-04-24T12:21:22.551Z,23.85
2023-04-24T12:23:52.921Z,21.25
2023-04-24T12:26:24.347Z,23.88
2023-04-24T12:28:54.069Z,21.75
2023-04-24T12:31:27.959Z,16.30
2023-04-24T12:33:59.019Z,24.60
2023-04-24T12:36:28.979Z,17.58
2023-04-24T12:38:58.693Z,17.38
2023-04-24T12:41:28.346Z,17.13
2023-04-24T12:43:58.329Z,19.63
2023-04-24T12:46:30.784Z,22.85
2023-04-24T12:49:00.464Z,21.20
2023-04-24T12:51:30.144Z,15.02
2023-04-24T12:53:59.803Z,17.95
2023-04-24T12:56:29.509Z,15.45
2023-04-24T12:58:59.177Z,21.23
2023-04-24T13:01:31.553Z,24.95
2023-04-24T13:04:01.689Z,33.30
2023-04-24T13:06:32.675Z,27.58
2023-04-24T13:09:02.423Z,16.83
2023-04-24T13:11:32.115Z,21.02
2023-04-24T13:14:01.822Z,14.60
2023-04-24T13:16:34.155Z,11.23
2023-04-24T13:19:03.892Z,12.77
2023-04-24T13:21:33.850Z,22.30
2023-04-24T13:24:05.896Z,25.48
2023-04-24T13:26:35.736Z,14.77
2023-04-24T13:29:05.432Z,21.95
2023-04-24T13:31:37.790Z,16.48
2023-04-24T13:34:08.548Z,12.68
2023-04-24T13:36:38.383Z,13.93
2023-04-24T13:39:09.135Z,8.85
2023-04-24T13:41:39.218Z,7.20
2023-04-24T13:44:08.893Z,8.88
2023-04-24T13:46:41.317Z,8.00
2023-04-24T13:49:11.036Z,9.10
2023-04-24T13:51:41.234Z,7.70
2023-04-24T13:54:10.956Z,8.77
2023-04-24T13:56:40.654Z,11.63
2023-04-24T13:59:10.599Z,10.20
2023-04-24T14:01:43.290Z,8.73
2023-04-24T14:04:13.572Z,12.10
2023-04-24T14:06:43.407Z,13.80
2023-04-24T14:09:13.929Z,11.73
2023-04-24T14:11:43.729Z,12.82
2023-04-24T14:14:13.449Z,12.82
2023-04-24T14:16:45.792Z,11.32
2023-04-24T14:19:15.645Z,10.45
2023-04-24T14:21:45.358Z,12.93
2023-04-24T14:24:15.044Z,11.90
2023-04-24T14:26:44.740Z,13.23
2023-04-24T14:29:15.393Z,11.27
2023-04-24T14:31:47.949Z,13.13
2023-04-24T14:34:18.028Z,11.02
2023-04-24T14:36:47.795Z,13.77
2023-04-24T14:39:17.503Z,12.27
2023-04-24T14:41:47.173Z,14.00
2023-04-24T14:44:16.885Z,14.93
2023-04-24T14:46:49.314Z,12.75
2023-04-24T14:49:19.038Z,10.50
2023-04-24T14:51:48.824Z,12.05
2023-04-24T14:54:18.547Z,12.18
2023-04-24T14:56:48.231Z,12.60
2023-04-24T14:59:18.614Z,15.00
2023-04-24T15:02:01.867Z,11.63
2023-04-24T15:04:38.980Z,11.05
2023-04-24T15:07:08.789Z,11.75
2023-04-24T15:09:38.468Z,11.68
2023-04-24T15:12:08.369Z,10.10
2023-04-24T15:14:38.093Z,12.70
2023-04-24T15:17:10.393Z,9.80
2023-04-24T15:19:40.128Z,12.07
2023-04-24T15:22:09.859Z,12.13
2023-04-24T15:24:39.586Z,11.93
2023-04-24T15:27:09.354Z,10.77
2023-04-24T15:29:39.071Z,11.55
2023-04-24T15:32:11.454Z,10.73
2023-04-24T15:34:41.196Z,10.85
2023-04-24T15:37:10.930Z,11.65
2023-04-24T15:39:40.942Z,11.20
2023-04-24T15:42:10.698Z,11.35
2023-04-24T15:44:40.400Z,10.75
2023-04-24T15:47:15.199Z,10.75
2023-04-24T15:49:44.908Z,12.45
2023-04-24T15:52:14.981Z,47.83
2023-04-24T15:54:44.640Z,22.92
2023-04-24T15:57:14.916Z,29.58
2023-04-24T15:59:44.696Z,12.85
2023-04-24T16:02:19.522Z,8.00
2023-04-24T16:04:49.817Z,9.27
2023-04-24T16:07:20.205Z,12.63
2023-04-24T16:09:49.994Z,9.93
2023-04-24T16:12:19.732Z,8.40
2023-04-24T16:14:49.462Z,10.20
2023-04-24T16:19:51.402Z,10.48
2023-04-24T16:22:21.179Z,9.70
2023-04-24T16:24:50.873Z,11.07
2023-04-24T16:27:20.545Z,11.77
2023-04-24T16:29:50.282Z,9.93
2023-04-24T16:32:22.795Z,11.45
2023-04-24T16:34:52.539Z,10.85
2023-04-24T16:37:22.278Z,10.43
2023-04-24T16:39:52.045Z,10.63
2023-04-24T16:42:21.734Z,11.50
2023-04-24T16:44:51.439Z,11.00
2023-04-24T16:47:23.722Z,11.13
2023-04-24T16:49:53.528Z,9.98
2023-04-24T16:52:23.185Z,9.77
2023-04-24T16:54:52.977Z,12.45
2023-04-24T16:57:22.717Z,10.20
2023-04-24T16:59:52.465Z,18.30
2023-04-24T17:02:24.769Z,16.20
2023-04-24T17:04:55.171Z,17.90
2023-04-24T17:07:25.102Z,15.48
2023-04-24T17:09:54.917Z,13.82
2023-04-24T17:12:24.685Z,15.90
2023-04-24T17:14:54.374Z,13.07
2023-04-24T17:17:26.692Z,15.38
2023-04-24T17:19:56.422Z,13.63
2023-04-24T17:22:26.406Z,18.67
2023-04-24T17:24:56.345Z,18.05
2023-04-24T17:27:26.096Z,24.80
2023-04-24T17:29:55.936Z,27.70
2023-04-24T17:32:28.396Z,24.92
2023-04-24T17:34:58.156Z,31.02
2023-04-24T17:37:28.053Z,116.25
2023-04-24T17:39:58.121Z,64.80
2023-04-24T17:42:27.901Z,25.40
2023-04-24T17:44:57.540Z,26.50
2023-04-24T17:47:30.995Z,18.67
2023-04-24T17:50:01.016Z,16.00
2023-04-24T17:52:30.699Z,12.15
2023-04-24T17:55:00.382Z,10.60
2023-04-24T17:57:30.200Z,16.98
2023-04-24T18:00:00.050Z,21.88
2023-04-24T18:02:32.424Z,21.25
2023-04-24T18:05:02.310Z,20.23
2023-04-24T18:07:32.216Z,46.25
2023-04-24T18:10:01.941Z,22.77
2023-04-24T18:12:31.694Z,34.13
2023-04-24T18:17:36.811Z,42.42
2023-04-24T18:20:07.024Z,35.08
2023-04-24T18:22:36.700Z,47.92
2023-04-24T18:25:06.744Z,65.75
2023-04-24T18:27:37.045Z,59.85
2023-04-24T18:30:07.765Z,38.95
2023-04-24T18:32:40.224Z,46.55
2023-04-24T18:35:10.182Z,45.45
2023-04-24T18:37:40.781Z,80.88
2023-04-24T18:40:11.684Z,37.53
2023-04-24T18:42:41.678Z,26.30
2023-04-24T18:45:14.629Z,20.02
2023-04-24T18:47:47.645Z,38.20
2023-04-24T18:50:19.373Z,28.98
2023-04-24T18:52:49.136Z,13.57
2023-04-24T18:55:18.866Z,13.23
2023-04-24T18:57:48.559Z,11.48
2023-04-24T19:00:19.163Z,9.30
2023-04-24T19:02:51.543Z,10.00
2023-04-24T19:05:21.354Z,8.57
2023-04-24T19:07:51.294Z,5.50
2023-04-24T19:10:21.116Z,7.70
2023-04-24T19:12:56.493Z,9.02
2023-04-24T19:15:26.550Z,9.05
2023-04-24T19:17:58.960Z,10.73
2023-04-24T19:20:28.766Z,7.32
2023-04-24T19:22:58.530Z,10.63
2023-04-24T19:25:28.256Z,9.75
2023-04-24T19:27:57.947Z,8.48
2023-04-24T19:30:27.659Z,6.53
2023-04-24T19:32:59.951Z,7.43
2023-04-24T19:35:29.840Z,6.78
2023-04-24T19:37:59.626Z,10.75
2023-04-24T19:40:29.301Z,9.35
2023-04-24T19:42:59.019Z,6.32
2023-04-24T19:45:28.728Z,16.23
2023-04-24T19:48:01.033Z,13.55
2023-04-24T19:50:31.432Z,14.88
2023-04-24T19:53:01.127Z,13.38
2023-04-24T19:55:30.959Z,12.93
2023-04-24T19:58:00.758Z,14.00
2023-04-24T20:00:30.455Z,15.35
2023-04-24T20:03:03.267Z,16.58
2023-04-24T20:05:33.044Z,9.95
2023-04-24T20:08:02.782Z,10.75
2023-04-24T20:10:32.916Z,8.65
2023-04-24T20:13:02.655Z,6.93
2023-04-24T20:15:33.308Z,9.32
2023-04-24T20:18:05.659Z,7.85
2023-04-24T20:20:38.818Z,6.10
2023-04-24T20:23:08.748Z,3.78
2023-04-24T20:25:38.733Z,4.50
2023-04-24T20:28:08.453Z,4.13
2023-04-24T20:30:38.276Z,5.80
2023-04-24T20:33:10.589Z,4.60
2023-04-24T20:35:40.302Z,4.20
2023-04-24T20:38:11.172Z,7.80
2023-04-24T20:40:56.103Z,14.48
2023-04-24T20:43:29.369Z,7.10
2023-04-24T20:45:59.937Z,10.88
2023-04-24T20:48:32.256Z,10.38
2023-04-24T20:51:02.101Z,14.55
2023-04-24T20:53:31.762Z,16.75
2023-04-24T20:56:01.436Z,14.98
2023-04-24T20:58:31.122Z,15.15
2023-04-24T21:01:01.159Z,6.60
2023-04-24T21:03:33.808Z,3.25
2023-04-24T21:06:03.610Z,3.85
2023-04-24T21:08:33.310Z,2.70
2023-04-24T21:11:02.987Z,5.18
2023-04-24T21:13:32.684Z,5.97
2023-04-24T21:16:02.443Z,4.95
2023-04-24T21:18:34.865Z,3.45
2023-04-24T21:21:04.564Z,5.30
2023-04-24T21:23:34.259Z,3.80
2023-04-24T21:26:03.948Z,7.22
2023-04-24T21:28:33.754Z,4.97
2023-04-24T21:31:03.493Z,3.58
2023-04-24T21:33:36.031Z,7.45
2023-04-24T21:36:05.766Z,4.15
2023-04-24T21:38:35.487Z,4.20
2023-04-24T21:41:05.472Z,6.47
2023-04-24T21:43:44.043Z,4.97
2023-04-24T21:46:14.692Z,6.40
2023-04-24T21:48:47.018Z,7.80
2023-04-24T21:51:17.869Z,4.55
2023-04-24T21:53:47.772Z,5.82
2023-04-24T21:56:17.606Z,5.30
2023-04-24T21:58:48.431Z,7.28
2023-04-24T22:01:19.225Z,5.50
2023-04-24T22:03:51.809Z,3.35
2023-04-24T22:06:21.939Z,5.43
2023-04-24T22:08:51.895Z,5.40
2023-04-24T22:11:26.801Z,5.43
2023-04-24T22:13:57.073Z,4.05
2023-04-24T22:16:29.057Z,4.35
2023-04-24T22:19:03.286Z,4.13
2023-04-24T22:21:32.970Z,3.85
2023-04-24T22:24:02.656Z,4.38
2023-04-24T22:26:32.340Z,4.40
2023-04-24T22:29:02.072Z,4.38
2023-04-24T22:31:31.989Z,5.55
2023-04-24T22:34:04.445Z,4.78
2023-04-24T22:36:34.422Z,5.53
2023-04-24T22:39:05.229Z,3.97
2023-04-24T22:41:35.007Z,4.63
2023-04-24T22:44:04.747Z,3.80
2023-04-24T22:46:34.435Z,4.53
2023-04-24T22:49:06.876Z,5.40
2023-04-24T22:51:37.438Z,4.95
2023-04-24T22:54:07.930Z,4.63
2023-04-24T22:56:38.009Z,4.93
2023-04-24T22:59:07.803Z,5.53
2023-04-24T23:01:37.515Z,4.45
2023-04-24T23:04:09.916Z,6.15
2023-04-24T23:06:39.625Z,4.72
2023-04-24T23:09:09.748Z,7.53
2023-04-24T23:11:39.413Z,3.25
2023-04-24T23:14:09.365Z,4.07
2023-04-24T23:16:41.190Z,5.57
2023-04-24T23:19:13.522Z,4.03
2023-04-24T23:21:43.225Z,2.72
2023-04-24T23:24:13.060Z,3.05
2023-04-24T23:26:42.766Z,6.10
2023-04-24T23:29:12.485Z,5.45
2023-04-24T23:31:42.247Z,2.65
2023-04-24T23:34:16.772Z,4.15
2023-04-24T23:36:46.983Z,3.63
2023-04-24T23:39:16.700Z,5.05
2023-04-24T23:41:46.556Z,4.05
2023-04-24T23:44:16.258Z,4.88
2023-04-24T23:46:45.963Z,3.92
2023-04-24T23:49:18.250Z,3.72
2023-04-24T23:51:47.945Z,3.47
2023-04-24T23:54:17.631Z,5.97
2023-04-24T23:56:48.074Z,4.78
2023-04-24T23:59:20.802Z,6.18
